createdAt,value
2022-08-22T00:02:46.133Z,87.36
2022-08-22T00:04:59.709Z,89.72
2022-08-22T00:10:24.964Z,90.05
2022-08-22T00:15:44.235Z,90.23
2022-08-22T00:20:54.094Z,90.25
2022-08-22T00:26:06.941Z,90.61
2022-08-22T00:31:47.027Z,90.03
2022-08-22T00:37:02.281Z,89.97
2022-08-22T00:42:31.646Z,90.96
2022-08-22T00:47:53.501Z,91.60
2022-08-22T00:53:17.449Z,91.42
2022-08-22T00:58:34.149Z,91.02
2022-08-22T01:03:48.455Z,90.96
2022-08-22T01:09:23.250Z,91.10
2022-08-22T01:14:46.369Z,91.21
2022-08-22T01:20:24.931Z,91.06
2022-08-22T01:25:45.363Z,90.59
2022-08-22T01:31:07.579Z,90.38
2022-08-22T01:36:43.218Z,90.04
2022-08-22T01:42:00.073Z,90.17
2022-08-22T01:47:13.947Z,90.56
2022-08-22T01:52:29.269Z,91.17
2022-08-22T01:57:31.061Z,89.92
2022-08-22T02:02:40.576Z,90.17
2022-08-22T02:08:00.983Z,89.93
2022-08-22T02:13:12.378Z,89.53
2022-08-22T02:18:25.870Z,90.68
2022-08-22T02:24:00.274Z,91.03
2022-08-22T02:29:11.878Z,91.15
2022-08-22T02:34:34.030Z,91.44
2022-08-22T02:39:39.816Z,90.98
2022-08-22T02:44:50.737Z,91.82
2022-08-22T02:50:23.128Z,91.72
2022-08-22T02:56:08.721Z,91.08
2022-08-22T03:01:24.883Z,90.92
2022-08-22T03:06:40.049Z,90.99
2022-08-22T03:12:03.939Z,90.32
2022-08-22T03:17:17.721Z,89.18
2022-08-22T03:22:32.084Z,89.05
2022-08-22T03:27:40.618Z,89.28
2022-08-22T03:32:55.812Z,90.12
2022-08-22T03:38:44.570Z,90.54
2022-08-22T03:44:08.289Z,91.10
2022-08-22T03:49:25.407Z,90.03
2022-08-22T03:55:09.099Z,90.05
2022-08-22T04:00:36.536Z,89.67
2022-08-22T04:05:44.310Z,89.44
2022-08-22T04:11:33.112Z,89.37
2022-08-22T04:16:49.662Z,89.21
2022-08-22T04:21:54.375Z,88.58
2022-08-22T04:27:02.437Z,87.47
2022-08-22T04:32:25.375Z,87.20
2022-08-22T04:37:46.333Z,87.33
2022-08-22T04:43:12.511Z,87.60
2022-08-22T04:48:27.879Z,87.65
2022-08-22T04:53:48.040Z,87.12
2022-08-22T04:58:58.147Z,86.65
2022-08-22T05:04:05.850Z,87.61
2022-08-22T05:09:16.215Z,88.36
2022-08-22T05:14:27.974Z,90.00
2022-08-22T05:19:34.694Z,89.17
2022-08-22T05:24:42.328Z,89.80
2022-08-22T05:29:48.583Z,90.41
2022-08-22T05:34:54.070Z,90.38
2022-08-22T05:40:00.124Z,90.04
2022-08-22T05:45:05.355Z,90.43
2022-08-22T05:50:10.146Z,91.57
2022-08-22T05:55:17.739Z,92.36
2022-08-22T06:00:22.603Z,92.61
2022-08-22T06:05:28.486Z,92.76
2022-08-22T06:11:00.107Z,92.21
2022-08-22T06:16:14.052Z,91.46
2022-08-22T06:21:32.532Z,91.70
2022-08-22T06:26:40.042Z,91.88
2022-08-22T06:31:46.549Z,92.30
2022-08-22T06:36:51.172Z,92.17
2022-08-22T06:42:04.752Z,92.54
2022-08-22T06:47:12.165Z,92.38
2022-08-22T06:52:23.598Z,91.29
2022-08-22T06:57:30.177Z,89.59
2022-08-22T07:02:40.686Z,86.35
2022-08-22T07:07:42.395Z,78.50
2022-08-22T07:12:48.097Z,79.36
2022-08-22T07:17:54.353Z,80.70
2022-08-22T07:23:00.206Z,80.97
2022-08-22T07:28:36.571Z,81.01
2022-08-22T07:33:44.767Z,78.99
2022-08-22T07:39:29.943Z,76.08
2022-08-22T07:44:41.394Z,75.18
2022-08-22T07:49:54.537Z,72.24
2022-08-22T07:55:22.735Z,70.71
2022-08-22T08:00:25.449Z,68.67
2022-08-22T08:05:30.389Z,65.31
2022-08-22T08:10:37.356Z,63.87
2022-08-22T08:15:42.867Z,62.34
2022-08-22T08:20:49.271Z,62.63
2022-08-22T08:26:07.328Z,63.13
2022-08-22T08:31:17.987Z,58.65
2022-08-22T08:36:34.169Z,58.03
2022-08-22T08:42:01.209Z,60.76
2022-08-22T08:47:05.770Z,59.27
2022-08-22T08:52:27.984Z,59.27
2022-08-22T08:57:46.976Z,60.01
2022-08-22T09:08:44.417Z,58.13
2022-08-22T09:13:59.888Z,58.70
2022-08-22T09:19:19.953Z,55.75
2022-08-22T09:24:33.809Z,56.11
2022-08-22T09:29:54.580Z,53.37
2022-08-22T09:35:23.152Z,54.07
2022-08-22T09:40:15.326Z,58.18
2022-08-22T09:40:47.762Z,51.38
2022-08-22T09:46:06.655Z,51.36
2022-08-22T09:51:31.921Z,49.12
2022-08-22T09:56:50.582Z,50.77
2022-08-22T10:02:07.218Z,49.47
2022-08-22T10:07:20.531Z,52.00
2022-08-22T10:13:04.970Z,49.03
2022-08-22T10:18:18.501Z,49.26
2022-08-22T10:23:25.688Z,48.40
2022-08-22T10:28:40.061Z,50.02
2022-08-22T10:34:04.219Z,50.26
2022-08-22T10:39:11.848Z,50.28
2022-08-22T10:44:21.703Z,50.41
2022-08-22T10:49:35.455Z,48.79
2022-08-22T10:54:44.893Z,48.27
2022-08-22T10:59:59.484Z,50.72
2022-08-22T11:05:37.151Z,48.56
2022-08-22T11:10:53.771Z,47.32
2022-08-22T11:16:07.738Z,47.93
2022-08-22T11:21:27.593Z,47.75
2022-08-22T11:26:46.985Z,48.76
2022-08-22T11:32:16.915Z,47.98
2022-08-22T11:37:46.011Z,48.05
2022-08-22T11:42:58.031Z,49.32
2022-08-22T11:48:24.406Z,48.28
2022-08-22T11:53:39.581Z,47.97
2022-08-22T11:58:50.557Z,48.74
2022-08-22T12:04:15.829Z,49.01
2022-08-22T12:09:25.299Z,47.09
2022-08-22T12:14:36.027Z,48.00
2022-08-22T12:20:14.969Z,48.47
2022-08-22T12:25:45.423Z,46.19
2022-08-22T12:31:12.747Z,46.85
2022-08-22T12:36:22.436Z,46.49
2022-08-22T12:41:57.985Z,45.59
2022-08-22T12:47:17.315Z,46.40
2022-08-22T12:52:47.463Z,45.21
2022-08-22T12:57:58.069Z,42.79
2022-08-22T13:03:09.589Z,43.80
2022-08-22T13:08:22.168Z,42.75
2022-08-22T13:13:43.478Z,43.85
2022-08-22T13:19:07.368Z,42.68
2022-08-22T13:24:16.809Z,43.12
2022-08-22T13:29:39.552Z,44.43
2022-08-22T13:34:50.819Z,42.56
2022-08-22T13:39:58.265Z,41.72
2022-08-22T13:45:12.094Z,39.34
2022-08-22T13:50:19.211Z,41.82
2022-08-22T13:55:21.085Z,43.16
2022-08-22T14:00:58.267Z,40.54
2022-08-22T14:06:32.535Z,43.32
2022-08-22T14:11:30.977Z,43.62
2022-08-22T14:16:38.971Z,43.54
2022-08-22T14:21:45.366Z,43.41
2022-08-22T14:27:05.515Z,42.84
2022-08-22T14:32:35.528Z,44.42
2022-08-22T14:37:41.811Z,43.19
2022-08-22T14:43:05.175Z,40.46
2022-08-22T14:48:29.857Z,43.40
2022-08-22T14:53:37.103Z,43.84
2022-08-22T14:58:50.815Z,44.14
2022-08-22T15:03:59.201Z,44.32
2022-08-22T15:09:07.955Z,45.71
2022-08-22T15:14:21.440Z,46.85
2022-08-22T15:19:43.069Z,47.01
2022-08-22T15:25:04.951Z,48.39
2022-08-22T15:30:16.589Z,48.14
2022-08-22T15:35:32.085Z,47.64
2022-08-22T15:40:45.725Z,48.76
2022-08-22T15:45:50.393Z,49.30
2022-08-22T15:51:02.838Z,49.52
2022-08-22T15:56:13.891Z,50.04
2022-08-22T16:01:22.441Z,50.02
2022-08-22T16:06:46.652Z,51.00
2022-08-22T16:11:54.893Z,51.27
2022-08-22T16:17:01.362Z,50.83
2022-08-22T16:22:06.711Z,50.95
2022-08-22T16:27:19.172Z,50.08
2022-08-22T16:32:28.192Z,49.37
2022-08-22T16:37:35.613Z,48.56
2022-08-22T16:42:40.669Z,47.80
2022-08-22T16:47:54.504Z,48.29
2022-08-22T16:53:10.198Z,48.08
2022-08-22T16:58:12.091Z,47.73
2022-08-22T17:03:35.435Z,47.87
2022-08-22T17:08:57.243Z,47.42
2022-08-22T17:14:08.507Z,48.29
2022-08-22T17:19:35.616Z,47.53
2022-08-22T17:24:59.411Z,47.24
2022-08-22T17:30:15.528Z,47.67
2022-08-22T17:35:38.901Z,48.24
2022-08-22T17:40:57.551Z,48.21
2022-08-22T17:46:28.601Z,48.35
2022-08-22T17:51:38.889Z,52.41
2022-08-22T17:56:47.268Z,54.41
2022-08-22T18:02:01.291Z,56.03
2022-08-22T18:07:14.978Z,58.05
2022-08-22T18:12:28.324Z,59.29
2022-08-22T18:17:50.764Z,60.21
2022-08-22T18:22:57.699Z,61.54
2022-08-22T18:28:11.696Z,63.01
2022-08-22T18:33:28.153Z,64.08
2022-08-22T18:38:51.523Z,65.54
2022-08-22T18:43:53.551Z,66.85
2022-08-22T18:49:14.478Z,67.75
2022-08-22T18:54:36.923Z,68.68
2022-08-22T18:59:56.901Z,68.71
2022-08-22T19:05:24.578Z,69.09
2022-08-22T19:10:35.498Z,69.10
2022-08-22T19:16:05.399Z,69.64
2022-08-22T19:21:42.128Z,69.86
2022-08-22T19:26:48.062Z,70.47
2022-08-22T19:31:52.647Z,71.00
2022-08-22T19:37:32.209Z,71.57
2022-08-22T19:42:36.564Z,71.82
2022-08-22T19:47:42.697Z,71.84
2022-08-22T19:52:56.648Z,71.71
2022-08-22T19:58:37.857Z,72.08
2022-08-22T20:03:59.074Z,72.02
2022-08-22T20:09:30.484Z,71.72
2022-08-22T20:14:36.541Z,71.74
2022-08-22T20:20:16.511Z,71.96
2022-08-22T20:25:43.107Z,72.00
2022-08-22T20:30:46.948Z,71.28
2022-08-22T20:35:59.145Z,71.66
2022-08-22T20:41:23.694Z,71.78
2022-08-22T20:46:43.814Z,72.23
2022-08-22T20:51:54.335Z,73.02
2022-08-22T20:57:01.359Z,73.87
2022-08-22T21:02:19.021Z,74.33
2022-08-22T21:07:41.851Z,74.32
2022-08-22T21:12:59.855Z,74.46
2022-08-22T21:18:02.046Z,75.03
2022-08-22T21:23:08.896Z,75.02
2022-08-22T21:28:11.243Z,75.13
2022-08-22T21:33:23.961Z,75.29
2022-08-22T21:38:27.393Z,75.92
2022-08-22T21:43:36.973Z,76.56
2022-08-22T21:48:56.514Z,77.13
2022-08-22T21:54:33.563Z,76.50
2022-08-22T21:59:51.417Z,76.10
2022-08-22T22:05:02.372Z,76.36
2022-08-22T22:10:06.011Z,76.56
2022-08-22T22:15:09.429Z,76.85
2022-08-22T22:20:12.791Z,76.88
2022-08-22T22:25:38.901Z,76.06
2022-08-22T22:30:39.552Z,75.82
2022-08-22T22:35:41.382Z,76.55
2022-08-22T22:40:43.210Z,77.06
2022-08-22T22:45:44.977Z,77.09
2022-08-22T22:50:47.299Z,77.36
2022-08-22T22:55:59.979Z,76.50
2022-08-22T23:01:22.295Z,76.88
2022-08-22T23:06:26.482Z,77.09
2022-08-22T23:11:30.196Z,77.19
2022-08-22T23:16:37.023Z,78.15
2022-08-22T23:21:40.655Z,78.36
2022-08-22T23:26:42.788Z,78.26
2022-08-22T23:31:57.022Z,78.58
2022-08-22T23:37:00.734Z,77.73
2022-08-22T23:42:02.706Z,77.25
2022-08-22T23:47:06.511Z,78.00
2022-08-22T23:52:09.775Z,78.32
2022-08-22T23:57:12.729Z,78.44
